Airfield :
LOGIN :

Register | Disclaimer

   EN    FR    IT 

 










Legend :    VFR   Marginal VFR   IFR   Intensive IFR   Very Intensive IFR
Visi :
Ceiling :
>= 8 km
>= 3000ft
5 to 8 km
1000 to 3000 ft
1500m to 5 km
500 to 1000 ft
800 to 1500m
200 to 500 ft
< 800m
< 200 ft
Symbols :   Thunderstorms  Fog  Heavy snow  Heavy precipitations  Wind > 20 kt
SIGMETs :     Misc.  Thunderstorms  Icing  Turbulence  Mountain Waves  Volcanic Ashes






- Airport Elevation : 33 ft
- IATA code : MHZ


EGUN - RAF Mildenhall

CURRENT METAR :
  • 181855Z 01010KT 9999 FEW050 17/10 A2997 RMK AO2A SLP152 T01740100 $

EXPIRED METARs :
  • 181755Z 36009KT 9999 SCT030 19/10 A2996 RMK AO2A SLP149 T01910096 10215 20190 $
  • 181655Z 34007KT 9999 SCT047 20/09 A2995 RMK AO2A SLP145 T01980091 $
  • 181555Z 33008KT 9999 SCT044 SCT200 21/10 A2994 RMK AO2A SLP142 T02070096 $
  • 181455Z 33008G15KT 9999 SCT039 SCT200 20/10 A2995 RMK AO2A SLP145 T02000101 52004 $

TAF TAF EGUN
Valid from the 18 at 12:00 until the 19 at 18:00 UTC


181200Z 1812/1918 32005KT 9999 BKN030 BKN100 QNH2992INS
BECMG 1815/1816 01005KT 9999 VCSH BKN040 BKN130 QNH2993INS
TEMPO 1816/1821 9000 -RA BR
BECMG 1820/1821 03005KT 9999 NSW BKN020 BKN160 QNH2995INS
TEMPO 1821/1901 8000 BR BKN015
BECMG 1900/1901 03007KT 6000 BR BKN009 OVC015 QNH3000INS
BECMG 1906/1907 03008KT 9999 NSW BKN015 OVC030 QNH3012INS
BECMG 1909/1910 02009KT 9999 BKN020 OVC040 QNH3016INS
BECMG 1912/1913 02008KT 9999 BKN030 BKN050 QNH3017INS TX21/1816Z TN11/1904Z



MET'MAP, your aeronautical weather chart ! - Copyright ORBIFLY December 2007 - Disclaimer

ORBIFLY MET'MAP TEAM :

Programming & Development : Alexandra Zaïnal
Original concept : Baudouin d'Aumeries
Technical & hardware support : Manuel Goepfert
Assistance : Marc-Olivier Méhu




SOURCES & CREDITS :

   NOAA